Ashotsk, Armenia

10:03 PM AMT on July 23, 2016 (GMT +0400)
Kars | | Change Station

Elev 5889 ft 40.55 °N, 43.08 °E | Updated 13 minutes ago

Clear
Clear
57 °F
Feels Like 57 °F
N
12
Wind Variable Wind from East

Today
High -- | Low -- °F
--% Chance of Precip.
Yesterday
High -- | Low -- °F
Precip. -- in
Pressure 30.09 in
Visibility -9999.0 miles
Clouds
Dew Point 50 °F
Humidity 77%
Rainfall 0.00 in
Snow Depth Not available.
5:52 AM 8:29 PM
Waning Gibbous, 83% visible
METAR LTCF 231750Z 08010KT CAVOK 14/10 Q1019
Pressure 30.09 in
Visibility -9999.0 miles
Clouds
Dew Point 50 °F
Humidity 77%
Rainfall 0.00 in
Snow Depth Not available.
5:52 AM 8:29 PM
Waning Gibbous, 83% visible
METAR LTCF 231750Z 08010KT CAVOK 14/10 Q1019

10-Day Weather Forecast

×

Almanac

Astronomy

Jul. 23, 2016 Rise Set
Actual Time
Civil Twilight
Nautical Twilight
Astronomical Twilight
Moon
Length of Visible Light
Length of Day
Tomorrow will be .
, % of the Moon is Illuminated

Today's Extremes

Country Highs Country Lows

Community

WunderPhotos

Upload Photos

1,926,878 photos uploaded!

WunderBlog® & News

Nearby

Air Quality

  Air Quality AQ Index Pollutant
Not available.

Snow Depth

Station Depth Elevation

Earthquake Activity

City Distance Mag. Time & Date
Minimum magnitude displayed is 2.5.

Coastal Water Temperatures

Place Temperature

Stations

Nearby Weather Stations

Station Location Temp. Windchill Dew Point Humidity Wind Precip. Elev Updated Type